Monday, September 25, 2017, 5:52 AM EDT
Back to Local

KABE, Lehigh Valley International Airport

Location: Allentown, PA, United States Lat: 40.65
Local Time: 5:52 AM EDT ( 9:52 GMT) Lon: -75.45
Time Zone: US/Eastern Elev: 393 ft

Show me the last for .
Show Decoded

2017-09-25 04:51 METAR KABE 250851Z 00000KT 7SM CLR 19/17 A3005 RMK AO2 SLP172 T01890172 53004 =
2017-09-25 03:51 METAR KABE 250751Z 00000KT 9SM CLR 19/18 A3004 RMK AO2 SLP169 T01940178 =
2017-09-25 02:51 METAR KABE 250651Z 00000KT 9SM CLR 19/18 A3004 RMK AO2 SLP167 T01940178 =
2017-09-25 01:51 METAR KABE 250551Z 02004KT 10SM CLR 20/18 A3004 RMK AO2 SLP168 T02000178 10256
                 20200 58010 =
2017-09-25 00:51 METAR KABE 250451Z 00000KT 10SM CLR 21/18 A3005 RMK AO2 SLP172 T02060183
                 403330167 =
2017-09-24 23:51 METAR KABE 250351Z 36003KT 10SM CLR 22/19 A3006 RMK AO2 SLP175 T02170189 =
2017-09-24 22:51 METAR KABE 250251Z 00000KT 10SM CLR 23/19 A3007 RMK AO2 SLP178 T02330189 51006 =
2017-09-24 21:51 METAR KABE 250151Z 00000KT 10SM CLR 23/19 A3007 RMK AO2 SLP179 T02280189 =
2017-09-24 20:51 METAR KABE 250051Z 00000KT 10SM CLR 25/18 A3007 RMK AO2 SLP178 T02500183 =
2017-09-24 19:51 METAR KABE 242351Z 23004KT 10SM CLR 26/18 A3005 RMK AO2 SLP172 T02610178 10333
                 20261 53005 =
2017-09-24 18:51 METAR KABE 242251Z 00000KT 10SM CLR 30/17 A3004 RMK AO2 SLP168 T03000172 =
2017-09-24 17:51 METAR KABE 242151Z 10007KT 10SM CLR 32/17 A3003 RMK AO2 SLP166 T03170172 =
2017-09-24 16:51 METAR KABE 242051Z 09005KT 10SM CLR 33/18 A3003 RMK AO2 SLP166 T03280178 56013 =
2017-09-24 15:51 METAR KABE 241951Z 06005KT 10SM CLR 32/18 A3004 RMK AO2 SLP170 T03220178 =
2017-09-24 14:51 METAR KABE 241851Z 05008KT 10SM CLR 32/18 A3006 RMK AO2 SLP175 T03220183 =
2017-09-24 13:51 METAR KABE 241751Z 03004KT 10SM CLR 32/18 A3007 RMK AO2 SLP180 T03170183 10317
                 20183 58010 =
2017-09-24 12:51 METAR KABE 241651Z 09006KT 10SM CLR 31/18 A3009 RMK AO2 SLP184 T03110183 =
2017-09-24 11:51 METAR KABE 241551Z 07005KT 10SM CLR 30/19 A3010 RMK AO2 SLP189 T03000189 =
2017-09-24 10:51 METAR KABE 241451Z 00000KT 10SM CLR 28/19 A3010 RMK AO2 SLP191 T02830194 58006 =
2017-09-24 09:51 METAR KABE 241351Z 00000KT 10SM CLR 26/17 A3011 RMK AO2 SLP195 T02560172 =
2017-09-24 08:51 METAR KABE 241251Z 00000KT 10SM CLR 22/17 A3012 RMK AO2 SLP197 T02170172 =
2017-09-24 07:51 METAR KABE 241151Z 00000KT 10SM CLR 18/16 A3012 RMK AO2 SLP198 T01830161 10194
                 20167 53013 =
2017-09-24 06:51 METAR KABE 241051Z 00000KT 10SM CLR 17/15 A3011 RMK AO2 SLP193 T01720150 =

Support USWX by starting your Amazon purchase here.